Time;durP1;ratioP1;P1;durP2;ratioP2;P2;SDS_P1;SDS_P2;PMS_P1;PMS_P2;Temp;Humidity;BMP_temperature;BMP_pressure;BME280_temperature;BME280_humidity;BME280_pressure;Samples;Min_cycle;Max_cycle;Signal;HPM_P1;HPM_P2
2023/02/22 00:02:09;;;;;;;39.08;19.50;;;9.40;99.90;;;;;;5500283;23;20063;-96
2023/02/22 00:04:38;;;;;;;35.70;18.55;;;9.40;99.90;;;;;;4899652;29;20057;-96
2023/02/22 00:20:04;;;;;;;31.48;17.02;;;9.40;99.90;;;;;;5012334;23;20067;-92
2023/02/22 00:22:34;;;;;;;35.15;18.58;;;9.40;99.90;;;;;;4885024;29;20056;-95
2023/02/22 00:50:59;;;;;;;32.08;17.77;;;9.30;99.90;;;;;;5593981;23;20045;-96
2023/02/22 00:56:34;;;;;;;30.75;17.23;;;9.30;99.90;;;;;;4882271;29;20045;-96
2023/02/22 00:59:03;;;;;;;30.35;16.55;;;9.30;99.90;;;;;;4873689;29;20076;-95
2023/02/22 01:01:29;;;;;;;29.52;16.55;;;9.30;99.90;;;;;;4868926;29;20098;-96
2023/02/22 01:04:11;;;;;;;31.73;16.75;;;9.30;99.90;;;;;;4868934;29;20042;-96
2023/02/22 01:06:40;;;;;;;26.50;15.45;;;9.30;99.90;;;;;;4873363;29;20050;-96
2023/02/22 01:09:18;;;;;;;29.25;16.33;;;9.30;99.90;;;;;;4882253;29;20041;-96
2023/02/22 01:11:44;;;;;;;29.50;16.17;;;9.30;99.90;;;;;;4876785;29;20050;-95
2023/02/22 01:14:22;;;;;;;25.92;14.77;;;9.20;99.90;;;;;;4873652;29;20124;-96
2023/02/22 01:16:49;;;;;;;29.50;16.10;;;9.30;99.90;;;;;;4881940;29;20045;-96
2023/02/22 01:22:38;;;;;;;;;;;9.30;99.90;;;;;;4853211;29;20040;-96
2023/02/22 01:25:10;;;;;;;27.90;14.98;;;9.20;99.90;;;;;;4864550;29;19923;-95
2023/02/22 01:27:42;;;;;;;26.85;13.88;;;9.20;99.90;;;;;;4863998;29;20069;-96
2023/02/22 01:30:13;;;;;;;29.30;15.98;;;9.20;99.90;;;;;;4862712;29;20486;-96
2023/02/22 01:32:42;;;;;;;30.67;16.45;;;9.20;99.90;;;;;;4868633;29;20406;-96
2023/02/22 01:35:23;;;;;;;29.33;15.90;;;9.20;99.90;;;;;;4875030;29;20049;-96
2023/02/22 01:37:49;;;;;;;31.23;15.15;;;9.20;99.90;;;;;;4870464;29;20045;-96
2023/02/22 01:40:37;;;;;;;28.92;15.32;;;9.20;99.90;;;;;;4866958;29;20141;-95
2023/02/22 01:43:42;;;;;;;28.33;16.75;;;9.20;99.90;;;;;;4861730;29;20054;-95
2023/02/22 01:46:21;;;;;;;28.83;16.58;;;9.20;99.90;;;;;;4857617;29;20053;-95
2023/02/22 01:49:06;;;;;;;30.02;15.40;;;9.20;99.90;;;;;;4861942;29;20049;-96
2023/02/22 01:51:54;;;;;;;27.35;15.60;;;9.20;99.90;;;;;;4855417;29;20087;-96
2023/02/22 01:54:31;;;;;;;30.00;15.85;;;9.20;99.90;;;;;;4849628;29;20073;-96
2023/02/22 01:57:06;;;;;;;27.13;15.98;;;9.10;99.90;;;;;;4859650;29;20069;-96
2023/02/22 01:59:36;;;;;;;32.13;17.35;;;9.10;99.90;;;;;;4857062;29;20053;-95
2023/02/22 02:02:03;;;;;;;28.63;15.07;;;9.10;99.90;;;;;;4852685;29;20540;-96
2023/02/22 02:04:30;;;;;;;29.00;14.85;;;9.10;99.90;;;;;;4869166;29;20050;-96
2023/02/22 02:07:01;;;;;;;28.40;14.82;;;9.10;99.90;;;;;;4864563;29;20046;-96
2023/02/22 02:09:56;;;;;;;26.70;14.82;;;9.10;99.90;;;;;;4867906;29;20061;-96
2023/02/22 02:12:22;;;;;;;27.38;14.60;;;9.10;99.90;;;;;;4868576;29;20081;-96
2023/02/22 02:14:48;;;;;;;27.50;16.52;;;9.10;99.90;;;;;;4852925;29;20098;-96
2023/02/22 02:17:16;;;;;;;32.35;15.52;;;9.20;99.90;;;;;;4865034;29;20049;-96
2023/02/22 02:20:06;;;;;;;29.67;15.20;;;9.10;99.90;;;;;;4849307;29;20054;-96
2023/02/22 02:23:05;;;;;;;28.30;15.60;;;9.10;99.90;;;;;;4849399;29;20413;-95
2023/02/22 02:26:09;;;;;;;28.52;15.65;;;9.10;99.90;;;;;;4845805;29;20462;-95
2023/02/22 02:28:59;;;;;;;29.42;14.55;;;9.10;99.90;;;;;;4848139;29;20113;-96
2023/02/22 02:31:28;;;;;;;30.77;16.60;;;9.10;99.90;;;;;;4870884;29;20053;-96
2023/02/22 02:34:03;;;;;;;28.05;15.50;;;9.10;99.90;;;;;;4873455;29;20046;-96
2023/02/22 02:36:31;;;;;;;30.73;15.85;;;9.10;99.90;;;;;;4872236;29;20054;-96
2023/02/22 02:39:09;;;;;;;33.50;18.33;;;9.10;99.90;;;;;;4872940;29;20049;-95
2023/02/22 02:41:44;;;;;;;34.75;15.70;;;9.10;99.90;;;;;;4874177;29;20046;-96
2023/02/22 02:44:39;;;;;;;28.42;15.52;;;9.10;99.90;;;;;;4869222;29;20053;-96
2023/02/22 02:47:11;;;;;;;29.60;15.05;;;9.10;99.90;;;;;;4862559;29;20054;-96
2023/02/22 02:49:55;;;;;;;27.30;15.23;;;9.10;99.90;;;;;;4856037;29;20053;-96
2023/02/22 02:52:24;;;;;;;27.42;14.68;;;9.10;99.90;;;;;;4862057;29;20126;-96
2023/02/22 02:54:50;;;;;;;39.28;19.92;;;9.10;99.90;;;;;;4876560;29;20060;-96
2023/02/22 02:57:16;;;;;;;31.00;14.90;;;9.10;99.90;;;;;;4866674;29;20042;-96
2023/02/22 02:59:42;;;;;;;31.50;15.85;;;9.10;99.90;;;;;;4853652;29;20056;-96
2023/02/22 03:02:43;;;;;;;36.83;20.08;;;9.10;99.90;;;;;;4875324;29;20045;-96
2023/02/22 03:05:37;;;;;;;32.28;18.83;;;9.00;99.90;;;;;;4852807;29;20056;-96
2023/02/22 03:08:23;;;;;;;27.10;14.40;;;9.00;99.90;;;;;;4871570;29;20037;-95
2023/02/22 03:11:13;;;;;;;28.90;14.80;;;9.00;99.90;;;;;;4891555;29;20053;-96
2023/02/22 03:13:51;;;;;;;30.73;16.45;;;9.00;99.90;;;;;;4866828;29;20046;-96
2023/02/22 03:16:38;;;;;;;21.33;13.25;;;9.00;99.90;;;;;;4866557;29;20049;-95
2023/02/22 03:19:20;;;;;;;26.13;15.10;;;9.00;99.90;;;;;;4870155;29;20030;-96
2023/02/22 03:22:12;;;;;;;26.98;15.00;;;9.00;99.90;;;;;;4869745;29;20031;-96
2023/02/22 03:27:28;;;;;;;22.60;14.05;;;8.90;99.90;;;;;;5188996;23;20061;-96
2023/02/22 03:30:09;;;;;;;31.27;18.27;;;8.90;99.90;;;;;;4855101;29;20053;-95
2023/02/22 03:32:46;;;;;;;33.72;19.13;;;8.90;99.90;;;;;;4870577;29;20049;-96
2023/02/22 03:35:25;;;;;;;33.75;17.67;;;8.90;99.90;;;;;;4860655;29;20085;-96
2023/02/22 03:38:01;;;;;;;27.85;16.52;;;8.90;99.90;;;;;;4877245;29;20060;-96
2023/02/22 03:40:50;;;;;;;24.83;15.57;;;8.90;99.90;;;;;;4892576;29;20049;-96
2023/02/22 03:43:24;;;;;;;26.73;15.40;;;8.90;99.90;;;;;;4878329;29;20050;-96
2023/02/22 03:46:02;;;;;;;28.83;17.08;;;8.90;99.90;;;;;;4870677;29;20056;-96
2023/02/22 03:48:47;;;;;;;32.42;17.63;;;8.90;99.90;;;;;;4869879;29;20049;-96
2023/02/22 03:51:26;;;;;;;25.73;14.77;;;8.90;99.90;;;;;;4884806;29;20478;-96
2023/02/22 03:53:52;;;;;;;25.23;14.75;;;8.90;99.90;;;;;;4893107;29;20049;-96
2023/02/22 03:56:38;;;;;;;26.13;14.98;;;8.90;99.90;;;;;;4886324;29;20572;-96
2023/02/22 03:59:08;;;;;;;26.33;15.23;;;8.90;99.90;;;;;;4850252;29;20134;-96
2023/02/22 04:01:40;;;;;;;25.27;14.57;;;8.90;99.90;;;;;;4854360;29;20434;-95
2023/02/22 04:04:06;;;;;;;39.72;22.30;;;8.90;99.90;;;;;;4870380;29;20056;-96
2023/02/22 04:06:38;;;;;;;30.25;17.58;;;8.90;99.90;;;;;;4857088;29;20049;-95
2023/02/22 04:09:04;;;;;;;36.72;20.83;;;8.80;99.90;;;;;;4878619;29;20052;-96
2023/02/22 04:11:32;;;;;;;31.98;18.00;;;8.90;99.90;;;;;;4894249;29;20049;-96
2023/02/22 04:13:59;;;;;;;29.00;16.95;;;8.90;99.90;;;;;;4891876;29;20080;-96
2023/02/22 04:16:25;;;;;;;36.95;20.60;;;8.90;99.90;;;;;;4877874;29;20153;-96
2023/02/22 04:18:59;;;;;;;26.70;16.10;;;8.80;99.90;;;;;;4878619;29;20048;-96
2023/02/22 04:21:25;;;;;;;27.98;15.85;;;8.80;99.90;;;;;;4875772;29;20045;-96
2023/02/22 04:23:58;;;;;;;27.85;16.13;;;8.80;99.90;;;;;;4875034;29;20108;-96
2023/02/22 04:26:24;;;;;;;38.45;19.65;;;8.80;99.90;;;;;;4893106;29;20089;-96
2023/02/22 04:28:54;;;;;;;32.38;18.30;;;8.80;99.90;;;;;;4874159;29;20065;-96
2023/02/22 04:31:22;;;;;;;30.58;17.17;;;8.80;99.90;;;;;;4870390;29;20053;-96
2023/02/22 04:33:48;;;;;;;36.00;20.23;;;8.80;99.90;;;;;;4858330;29;20049;-96
2023/02/22 04:36:15;;;;;;;43.63;24.40;;;8.80;99.90;;;;;;4872087;29;20052;-96
2023/02/22 04:38:42;;;;;;;38.22;21.33;;;8.80;99.90;;;;;;4875787;29;20045;-96
2023/02/22 04:41:08;;;;;;;30.98;19.75;;;8.80;99.90;;;;;;4881610;29;20056;-96
2023/02/22 04:43:34;;;;;;;48.50;26.48;;;8.80;99.90;;;;;;4862688;29;20074;-96
2023/02/22 04:46:12;;;;;;;39.13;21.80;;;8.70;99.90;;;;;;4858942;29;20064;-96
2023/02/22 04:48:49;;;;;;;49.90;26.52;;;8.70;99.90;;;;;;4873851;29;20507;-96
2023/02/22 04:51:21;;;;;;;34.25;19.02;;;8.70;99.90;;;;;;4858882;29;20046;-96
2023/02/22 04:53:47;;;;;;;34.03;17.67;;;8.70;99.90;;;;;;4873180;29;20077;-96
2023/02/22 04:56:19;;;;;;;30.52;17.52;;;8.70;99.90;;;;;;4873148;29;20053;-96
2023/02/22 04:58:57;;;;;;;30.65;18.02;;;8.70;99.90;;;;;;4887273;29;20051;-96
2023/02/22 05:01:35;;;;;;;36.17;20.52;;;8.60;99.90;;;;;;4885695;29;20053;-96
2023/02/22 05:04:05;;;;;;;46.78;25.05;;;8.70;99.90;;;;;;4881994;29;20082;-96
2023/02/22 05:06:32;;;;;;;41.13;21.30;;;8.70;99.90;;;;;;4888679;29;20053;-96
2023/02/22 05:08:57;;;;;;;47.75;24.65;;;8.70;99.90;;;;;;4893874;29;20509;-96
2023/02/22 05:11:34;;;;;;;51.47;28.85;;;8.70;99.90;;;;;;4881641;29;20060;-96
2023/02/22 05:14:03;;;;;;;49.20;27.17;;;8.70;99.90;;;;;;5235875;23;20054;-96
2023/02/22 05:16:52;;;;;;;44.35;25.30;;;8.70;99.90;;;;;;4846489;29;20053;-95
2023/02/22 05:19:40;;;;;;;49.47;26.95;;;8.60;99.90;;;;;;4905822;23;20057;-95
2023/02/22 05:22:25;;;;;;;62.83;34.88;;;8.70;99.90;;;;;;4864549;29;20516;-95
2023/02/22 05:25:06;;;;;;;53.60;29.48;;;8.60;99.90;;;;;;4869568;23;20054;-96
2023/02/22 05:27:37;;;;;;;54.08;29.20;;;8.60;99.90;;;;;;4874220;29;20049;-95
2023/02/22 05:30:04;;;;;;;62.75;35.47;;;8.60;99.90;;;;;;4870458;29;20125;-93
2023/02/22 05:32:35;;;;;;;60.38;33.20;;;8.60;99.90;;;;;;4881070;29;20065;-96
2023/02/22 05:35:04;;;;;;;68.28;38.78;;;8.60;99.90;;;;;;4875557;29;20082;-95
2023/02/22 05:37:41;;;;;;;70.82;37.40;;;8.60;99.90;;;;;;4872506;29;20088;-96
2023/02/22 05:40:10;;;;;;;69.50;37.65;;;8.50;99.90;;;;;;5061659;23;20061;-95
2023/02/22 05:42:36;;;;;;;70.80;36.85;;;8.50;99.90;;;;;;4857478;29;20074;-94
2023/02/22 05:45:02;;;;;;;50.15;28.02;;;8.50;99.90;;;;;;4849912;29;20054;-95
2023/02/22 05:47:28;;;;;;;57.35;29.77;;;8.50;99.90;;;;;;4837190;29;20065;-96
2023/02/22 05:52:30;;;;;;;56.58;30.63;;;8.50;99.90;;;;;;4874054;29;20049;-96
2023/02/22 05:54:56;;;;;;;66.50;36.47;;;8.50;99.90;;;;;;4861138;29;20033;-96
2023/02/22 05:57:22;;;;;;;59.03;32.78;;;8.50;99.90;;;;;;4863907;29;20056;-96
2023/02/22 05:59:50;;;;;;;62.22;32.53;;;8.40;99.90;;;;;;4859107;29;20093;-95
2023/02/22 06:02:22;;;;;;;75.18;40.17;;;8.50;99.90;;;;;;4885702;29;20073;-96
2023/02/22 06:04:47;;;;;;;66.78;36.25;;;8.40;99.90;;;;;;4875532;29;20474;-96
2023/02/22 06:07:56;;;;;;;74.93;38.20;;;8.50;99.90;;;;;;4874283;29;20124;-96
2023/02/22 06:10:25;;;;;;;72.90;38.22;;;8.40;99.90;;;;;;4884839;29;20114;-96
2023/02/22 06:12:54;;;;;;;63.67;34.15;;;8.40;99.90;;;;;;4870469;29;20045;-96
2023/02/22 06:15:24;;;;;;;66.32;35.40;;;8.40;99.90;;;;;;4887409;29;20066;-96
2023/02/22 06:18:00;;;;;;;66.38;33.90;;;8.40;99.90;;;;;;4888232;29;20118;-96
2023/02/22 06:20:29;;;;;;;65.47;33.70;;;8.40;99.90;;;;;;4887630;29;20029;-96
2023/02/22 06:23:01;;;;;;;68.28;35.72;;;8.50;99.90;;;;;;4885167;29;20075;-96
2023/02/22 06:25:30;;;;;;;82.55;43.08;;;8.40;99.90;;;;;;4883402;29;20117;-96
2023/02/22 06:27:57;;;;;;;72.30;36.05;;;8.40;99.90;;;;;;4885900;29;20096;-96
2023/02/22 06:34:07;;;;;;;74.63;37.65;;;8.40;99.90;;;;;;4887172;29;20032;-96
2023/02/22 06:36:36;;;;;;;67.22;34.75;;;8.40;99.90;;;;;;4881259;29;20052;-96
2023/02/22 06:39:10;;;;;;;76.95;41.28;;;8.40;99.90;;;;;;4882836;29;20049;-96
2023/02/22 06:58:44;;;;;;;66.25;33.92;;;8.30;99.90;;;;;;4877604;29;20068;-96
2023/02/22 07:01:11;;;;;;;72.18;35.92;;;8.30;99.90;;;;;;4876252;29;20055;-96
2023/02/22 07:03:37;;;;;;;70.47;36.33;;;8.30;99.90;;;;;;4874475;29;20045;-96
2023/02/22 07:06:15;;;;;;;83.28;41.17;;;8.30;99.90;;;;;;4878848;29;20050;-96
2023/02/22 07:08:41;;;;;;;76.60;40.10;;;8.30;99.90;;;;;;4896574;29;20077;-96
2023/02/22 07:11:09;;;;;;;69.72;36.28;;;8.20;99.90;;;;;;4895529;29;20049;-96
2023/02/22 07:13:34;;;;;;;86.25;42.78;;;8.20;99.90;;;;;;4877230;29;20046;-96
2023/02/22 07:21:11;;;;;;;76.68;38.55;;;8.20;99.90;;;;;;5687385;23;20049;-94
2023/02/22 07:23:37;;;;;;;77.63;38.35;;;8.20;99.90;;;;;;4866702;29;20428;-96
2023/02/22 07:26:04;;;;;;;78.85;39.67;;;8.20;99.90;;;;;;4885461;29;20056;-96
2023/02/22 07:28:30;;;;;;;76.93;37.47;;;8.20;99.90;;;;;;4868288;29;20073;-94
2023/02/22 07:30:55;;;;;;;84.10;41.40;;;8.20;99.90;;;;;;4885457;29;20056;-95
2023/02/22 07:33:21;;;;;;;75.13;37.13;;;8.20;99.90;;;;;;4872874;29;20557;-92
2023/02/22 07:35:48;;;;;;;77.32;37.70;;;8.20;99.90;;;;;;4883692;29;20409;-95
2023/02/22 07:39:07;;;;;;;89.28;40.72;;;8.20;99.90;;;;;;5068196;24;20105;-96
2023/02/22 07:41:34;;;;;;;82.15;38.83;;;8.20;99.90;;;;;;5034452;23;20035;-96
2023/02/22 07:44:12;;;;;;;79.55;37.45;;;8.20;99.90;;;;;;4871900;29;20405;-96
2023/02/22 07:46:49;;;;;;;80.95;40.00;;;8.20;99.90;;;;;;4874196;29;20041;-95
2023/02/22 08:21:59;;;;;;;85.05;41.05;;;8.10;99.90;;;;;;5034939;23;20125;-95
2023/02/22 08:24:25;;;;;;;91.80;42.33;;;8.10;99.90;;;;;;4869689;29;20064;-96
2023/02/22 08:26:50;;;;;;;98.60;43.08;;;8.10;99.90;;;;;;4884911;29;20054;-96
2023/02/22 08:29:22;;;;;;;89.40;39.72;;;8.00;99.90;;;;;;5528150;23;20049;-96
2023/02/22 08:34:23;;;;;;;86.43;41.10;;;8.10;99.90;;;;;;5650470;23;20054;-94
2023/02/22 08:36:49;;;;;;;90.63;40.47;;;8.10;99.90;;;;;;4862858;29;20057;-96
2023/02/22 08:39:15;;;;;;;92.22;42.65;;;8.10;99.90;;;;;;4862427;29;20052;-95
2023/02/22 08:41:40;;;;;;;99.05;45.17;;;8.10;99.90;;;;;;4862528;29;20055;-96
2023/02/22 08:44:06;;;;;;;101.60;43.60;;;8.10;99.90;;;;;;4869831;29;20050;-96
2023/02/22 08:46:31;;;;;;;102.88;46.33;;;8.10;99.90;;;;;;4864581;29;20074;-96
2023/02/22 08:48:57;;;;;;;103.85;47.33;;;8.10;99.90;;;;;;4855173;29;20045;-96
2023/02/22 08:51:23;;;;;;;107.10;46.75;;;8.10;99.90;;;;;;4866787;29;20053;-96
2023/02/22 08:53:49;;;;;;;113.78;48.05;;;8.10;99.90;;;;;;4869089;29;20049;-96
2023/02/22 08:56:14;;;;;;;101.03;45.15;;;8.10;99.90;;;;;;4873873;29;20074;-96
2023/02/22 08:58:40;;;;;;;112.85;47.13;;;8.10;99.90;;;;;;4867631;29;20034;-96
2023/02/22 09:01:06;;;;;;;103.30;44.45;;;8.10;99.90;;;;;;4873704;29;20109;-96
2023/02/22 09:03:31;;;;;;;105.30;45.35;;;8.10;99.90;;;;;;4878361;29;20029;-96
2023/02/22 09:05:58;;;;;;;105.47;44.88;;;8.10;99.90;;;;;;4883082;29;20067;-96
2023/02/22 09:08:27;;;;;;;95.50;42.60;;;8.10;99.90;;;;;;5381603;23;20057;-96
2023/02/22 09:10:53;;;;;;;99.00;43.20;;;8.10;99.90;;;;;;4883302;29;20150;-96
2023/02/22 09:13:19;;;;;;;105.70;44.38;;;8.10;99.90;;;;;;5281995;23;20029;-96
2023/02/22 09:15:53;;;;;;;108.63;45.63;;;8.10;99.90;;;;;;4858468;29;20053;-96
2023/02/22 09:27:29;;;;;;;99.97;42.63;;;8.10;99.90;;;;;;4840647;29;20077;-96
2023/02/22 09:32:35;;;;;;;100.25;45.22;;;8.10;99.90;;;;;;5116875;23;20069;-96
2023/02/22 09:35:11;;;;;;;108.93;47.50;;;8.10;99.90;;;;;;4852321;29;20050;-95
2023/02/22 09:37:57;;;;;;;110.63;47.75;;;8.20;99.90;;;;;;4865723;29;20421;-96
2023/02/22 09:40:24;;;;;;;105.75;45.53;;;8.20;99.90;;;;;;4862600;29;20134;-95
2023/02/22 09:42:59;;;;;;;110.05;45.00;;;8.20;99.90;;;;;;4862086;29;20057;-96
2023/02/22 09:45:36;;;;;;;108.13;47.50;;;8.20;99.90;;;;;;4863191;29;20045;-96
2023/02/22 09:48:07;;;;;;;106.15;45.17;;;8.20;99.90;;;;;;4864359;29;20045;-96
2023/02/22 09:50:43;;;;;;;114.97;47.42;;;8.20;99.90;;;;;;4862390;29;20105;-95
2023/02/22 09:53:28;;;;;;;113.13;45.47;;;8.20;99.90;;;;;;4863080;29;20049;-96
2023/02/22 09:56:00;;;;;;;118.82;48.53;;;8.20;99.90;;;;;;4850507;29;20053;-96
2023/02/22 09:58:26;;;;;;;115.05;48.90;;;8.20;99.90;;;;;;4863017;29;20049;-96
2023/02/22 10:00:59;;;;;;;114.35;46.83;;;8.20;99.90;;;;;;4861404;29;20046;-96
2023/02/22 10:03:49;;;;;;;117.82;46.10;;;8.20;99.90;;;;;;4862093;29;20505;-95
2023/02/22 10:06:20;;;;;;;119.35;47.70;;;8.20;99.90;;;;;;4861163;29;20494;-96
2023/02/22 10:08:46;;;;;;;109.38;44.83;;;8.20;99.90;;;;;;4863631;29;20045;-96
2023/02/22 10:11:30;;;;;;;121.45;46.78;;;8.30;99.90;;;;;;4862314;29;20045;-96
2023/02/22 10:14:14;;;;;;;;;;;8.30;99.90;;;;;;4862480;29;20037;-96
2023/02/22 10:16:49;;;;;;;114.72;44.45;;;8.20;99.90;;;;;;4861191;29;19927;-95
2023/02/22 10:19:37;;;;;;;120.10;44.67;;;8.30;99.90;;;;;;4848984;29;20466;-96
2023/02/22 10:22:06;;;;;;;118.75;45.85;;;8.30;99.90;;;;;;4861279;29;20128;-96
2023/02/22 10:24:54;;;;;;;112.25;44.10;;;8.30;99.90;;;;;;4860040;29;20118;-96
2023/02/22 10:27:39;;;;;;;116.03;46.35;;;8.30;99.90;;;;;;4860724;29;20418;-96
2023/02/22 10:30:27;;;;;;;118.50;44.20;;;8.30;99.90;;;;;;4860956;29;20081;-96
2023/02/22 10:32:57;;;;;;;122.93;45.30;;;8.40;99.90;;;;;;4860634;29;20054;-95
2023/02/22 10:35:28;;;;;;;113.22;42.53;;;8.40;99.90;;;;;;4859801;29;20061;-96
2023/02/22 10:38:04;;;;;;;108.45;43.58;;;8.40;99.90;;;;;;4850358;29;20060;-96
2023/02/22 10:40:32;;;;;;;112.60;45.17;;;8.40;99.90;;;;;;4867215;29;20093;-96
2023/02/22 10:43:04;;;;;;;123.07;48.42;;;8.50;99.90;;;;;;4869744;29;20060;-96
2023/02/22 10:45:32;;;;;;;120.35;47.13;;;8.50;99.90;;;;;;4864971;29;20076;-96
2023/02/22 10:48:13;;;;;;;116.60;46.13;;;8.50;99.90;;;;;;4900572;23;20079;-95
2023/02/22 10:53:15;;;;;;;126.53;48.28;;;8.50;99.90;;;;;;4922773;23;20057;-93
2023/02/22 10:56:15;;;;;;;110.00;43.65;;;8.50;99.90;;;;;;4863553;29;20054;-93
2023/02/22 10:59:03;;;;;;;116.03;45.10;;;8.50;99.90;;;;;;4863797;29;20517;-94
2023/02/22 11:01:31;;;;;;;119.32;45.63;;;8.50;99.90;;;;;;4864826;29;20045;-93
2023/02/22 11:04:10;;;;;;;124.05;47.35;;;8.50;99.90;;;;;;4863929;29;20508;-92
2023/02/22 11:06:37;;;;;;;125.72;47.70;;;8.50;99.90;;;;;;4875722;29;20046;-96
2023/02/22 11:09:09;;;;;;;133.35;49.45;;;8.60;99.90;;;;;;4874190;29;20074;-94
2023/02/22 11:11:35;;;;;;;119.28;45.00;;;8.60;99.90;;;;;;4885555;29;20045;-93
2023/02/22 11:14:02;;;;;;;117.45;47.03;;;8.70;99.90;;;;;;5030652;23;20024;-93
2023/02/22 11:16:37;;;;;;;133.30;50.17;;;8.70;99.90;;;;;;4841772;29;20061;-96
2023/02/22 11:19:28;;;;;;;136.02;51.25;;;8.70;99.90;;;;;;4845996;29;20501;-95
2023/02/22 11:22:25;;;;;;;134.32;50.35;;;8.70;99.90;;;;;;4846465;29;20092;-96
2023/02/22 11:24:54;;;;;;;138.55;50.90;;;8.70;99.90;;;;;;4847606;29;20057;-95
2023/02/22 11:27:51;;;;;;;121.95;46.50;;;8.70;99.90;;;;;;4850465;29;20063;-96
2023/02/22 11:30:32;;;;;;;140.98;50.90;;;8.70;99.90;;;;;;4856788;29;20485;-95
2023/02/22 11:33:22;;;;;;;131.40;49.33;;;8.80;99.90;;;;;;4849953;29;20128;-93
2023/02/22 11:35:57;;;;;;;132.98;50.65;;;8.70;99.90;;;;;;4843263;29;20042;-96
2023/02/22 11:38:52;;;;;;;120.22;47.85;;;8.80;99.90;;;;;;4857424;29;20050;-95
2023/02/22 11:41:32;;;;;;;119.38;45.78;;;8.80;99.90;;;;;;4847271;29;20053;-95
2023/02/22 11:44:19;;;;;;;121.50;45.83;;;8.80;99.90;;;;;;4846600;29;20123;-95
2023/02/22 11:47:05;;;;;;;126.82;49.17;;;8.80;99.90;;;;;;4856806;29;20046;-96
2023/02/22 11:49:37;;;;;;;140.23;50.72;;;8.80;99.90;;;;;;4850952;29;20251;-95
2023/02/22 11:52:41;;;;;;;143.52;51.00;;;8.80;99.90;;;;;;4856114;29;20046;-96
2023/02/22 11:55:51;;;;;;;127.75;49.08;;;8.90;99.90;;;;;;4839879;29;20057;-94
2023/02/22 11:58:25;;;;;;;129.35;46.40;;;8.90;99.90;;;;;;4794169;29;20081;-96
2023/02/22 12:01:15;;;;;;;124.65;45.80;;;8.90;99.90;;;;;;4791086;30;20051;-92
2023/02/22 12:04:09;;;;;;;113.07;43.30;;;8.90;99.90;;;;;;4832292;29;20126;-92
2023/02/22 12:06:46;;;;;;;116.35;43.95;;;9.00;99.90;;;;;;4857842;29;20046;-96
2023/02/22 12:09:21;;;;;;;107.93;42.55;;;9.00;99.90;;;;;;4865078;29;20041;-96
2023/02/22 12:12:06;;;;;;;123.93;44.50;;;9.00;99.90;;;;;;5129082;23;20057;-96
2023/02/22 12:15:30;;;;;;;114.53;43.50;;;9.10;99.90;;;;;;4882399;29;20036;-96
2023/02/22 12:18:36;;;;;;;112.30;42.00;;;9.10;99.90;;;;;;4885226;29;20042;-96
2023/02/22 12:21:17;;;;;;;105.93;40.60;;;9.10;99.90;;;;;;4874592;29;20049;-96
2023/02/22 12:23:58;;;;;;;113.47;41.72;;;9.20;99.90;;;;;;4864989;29;20516;-92
2023/02/22 12:26:52;;;;;;;105.57;40.45;;;9.20;99.90;;;;;;4860691;29;20060;-89
2023/02/22 12:29:23;;;;;;;110.97;41.42;;;9.20;99.90;;;;;;4860566;29;20045;-89
2023/02/22 12:32:03;;;;;;;105.15;39.60;;;9.20;99.90;;;;;;4860103;29;20056;-89
2023/02/22 12:34:29;;;;;;;106.07;40.97;;;9.30;99.90;;;;;;4861815;29;20049;-88
2023/02/22 12:37:36;;;;;;;101.25;39.05;;;9.30;99.90;;;;;;4861857;29;20056;-88
2023/02/22 12:40:34;;;;;;;102.10;40.00;;;9.30;99.90;;;;;;4842343;29;20061;-89
2023/02/22 12:43:09;;;;;;;94.00;37.22;;;9.30;99.90;;;;;;4855245;29;20402;-88
2023/02/22 12:45:39;;;;;;;114.65;41.55;;;9.30;99.90;;;;;;4872698;29;20523;-89
2023/02/22 12:48:24;;;;;;;107.22;40.22;;;9.30;99.90;;;;;;4843968;29;20046;-89
2023/02/22 12:50:56;;;;;;;100.00;40.05;;;9.40;99.90;;;;;;4822665;29;20058;-91
2023/02/22 12:53:33;;;;;;;101.97;39.42;;;9.40;99.90;;;;;;4841817;29;20536;-89
2023/02/22 12:56:02;;;;;;;114.50;42.17;;;9.40;99.90;;;;;;4843547;29;20134;-91
2023/02/22 12:58:54;;;;;;;91.53;38.42;;;9.40;99.90;;;;;;4840842;29;20049;-92
2023/02/22 13:01:28;;;;;;;105.70;40.38;;;9.40;99.90;;;;;;4843659;29;20451;-92
2023/02/22 13:03:54;;;;;;;96.55;38.80;;;9.50;99.90;;;;;;4858836;29;20422;-93
2023/02/22 13:06:32;;;;;;;92.28;38.33;;;9.50;99.90;;;;;;4857929;29;20052;-92
2023/02/22 13:09:25;;;;;;;96.30;38.67;;;9.50;99.90;;;;;;4857057;29;20054;-94
2023/02/22 13:12:17;;;;;;;100.47;40.45;;;9.60;99.90;;;;;;4843394;29;20066;-92
2023/02/22 13:14:51;;;;;;;95.03;38.88;;;9.50;99.90;;;;;;4834718;29;20097;-95
2023/02/22 13:17:36;;;;;;;90.95;37.75;;;9.60;99.90;;;;;;4861899;29;20042;-93
2023/02/22 13:20:17;;;;;;;92.63;37.83;;;9.60;99.90;;;;;;4861647;29;20050;-94
2023/02/22 13:23:14;;;;;;;93.45;37.33;;;9.70;99.90;;;;;;4860470;29;20041;-94
2023/02/22 13:25:51;;;;;;;88.60;38.22;;;9.70;99.90;;;;;;4856974;29;20077;-95
2023/02/22 13:28:43;;;;;;;91.72;37.38;;;9.70;99.90;;;;;;4861054;29;20049;-93
2023/02/22 13:31:18;;;;;;;86.47;36.60;;;9.70;99.90;;;;;;4845832;29;20085;-94
2023/02/22 13:34:37;;;;;;;93.85;37.90;;;9.80;99.90;;;;;;4845479;29;20266;-93
2023/02/22 13:37:49;;;;;;;82.25;34.47;;;9.80;99.90;;;;;;4807882;29;20162;-94
2023/02/22 13:40:57;;;;;;;81.00;34.85;;;9.70;99.90;;;;;;4772941;29;20095;-93
2023/02/22 13:46:54;;;;;;;77.72;33.30;;;9.80;99.90;;;;;;4842105;29;20050;-94
2023/02/22 13:50:26;;;;;;;76.90;33.75;;;9.80;99.90;;;;;;4841482;29;20050;-93
2023/02/22 13:52:54;;;;;;;78.72;33.25;;;9.80;99.90;;;;;;4874043;29;20086;-90
2023/02/22 13:55:50;;;;;;;73.57;33.38;;;9.90;99.90;;;;;;4844590;29;20038;-93
2023/02/22 13:58:16;;;;;;;76.30;33.33;;;9.90;99.90;;;;;;4842788;29;20046;-94
2023/02/22 14:00:41;;;;;;;76.90;33.00;;;9.90;99.90;;;;;;4858971;29;20053;-94
2023/02/22 14:03:13;;;;;;;76.10;33.55;;;9.90;99.90;;;;;;4875364;29;20050;-93
2023/02/22 14:05:41;;;;;;;74.28;32.75;;;9.90;99.90;;;;;;4860458;29;20045;-90
2023/02/22 14:08:30;;;;;;;74.28;33.42;;;9.90;99.90;;;;;;4860789;29;20049;-90
2023/02/22 14:11:00;;;;;;;67.75;31.85;;;10.00;99.90;;;;;;4851161;29;20064;-90
2023/02/22 14:13:27;;;;;;;73.57;32.25;;;10.00;99.90;;;;;;4860049;29;20089;-90
2023/02/22 14:15:59;;;;;;;68.90;32.33;;;10.00;99.90;;;;;;4870224;29;20144;-94
2023/02/22 14:18:27;;;;;;;67.75;31.50;;;10.00;99.90;;;;;;4890417;23;20230;-93
2023/02/22 14:21:11;;;;;;;74.90;32.90;;;10.00;99.90;;;;;;4880478;29;20053;-91
2023/02/22 14:24:12;;;;;;;71.32;31.60;;;10.00;99.90;;;;;;4878611;29;20125;-89
2023/02/22 14:26:40;;;;;;;66.97;32.28;;;10.00;99.90;;;;;;4846699;29;20054;-91
2023/02/22 14:29:08;;;;;;;69.30;31.58;;;10.00;99.90;;;;;;4849705;29;20072;-90
2023/02/22 14:31:42;;;;;;;68.38;30.50;;;10.10;99.90;;;;;;4854682;29;20064;-90
2023/02/22 14:34:08;;;;;;;66.20;31.35;;;10.00;99.90;;;;;;4862754;29;20056;-89
2023/02/22 14:36:40;;;;;;;65.35;30.98;;;10.10;99.90;;;;;;4865170;29;20584;-89
2023/02/22 14:39:24;;;;;;;65.72;32.22;;;10.10;99.90;;;;;;4865697;29;20048;-91
2023/02/22 14:42:09;;;;;;;61.90;29.75;;;10.00;99.90;;;;;;4865773;29;20429;-92
2023/02/22 14:44:47;;;;;;;69.10;31.98;;;10.10;99.90;;;;;;4866731;29;20053;-93
2023/02/22 14:47:19;;;;;;;64.35;30.52;;;10.10;99.90;;;;;;4861119;29;20045;-92
2023/02/22 14:49:49;;;;;;;66.35;32.55;;;10.10;99.90;;;;;;4860247;29;20104;-93
2023/02/22 14:52:23;;;;;;;62.58;30.05;;;10.10;99.90;;;;;;4853630;29;20052;-91
2023/02/22 14:55:15;;;;;;;63.40;30.35;;;10.10;99.90;;;;;;4850171;29;20148;-92
2023/02/22 14:58:00;;;;;;;54.80;28.60;;;10.10;99.90;;;;;;4864772;29;20049;-91
2023/02/22 15:00:36;;;;;;;64.70;30.40;;;10.10;99.90;;;;;;4861352;29;20072;-92
2023/02/22 15:03:02;;;;;;;65.68;30.70;;;10.10;99.90;;;;;;4859453;29;20055;-92
2023/02/22 15:05:37;;;;;;;61.65;28.65;;;10.10;99.90;;;;;;4847850;29;20045;-92
2023/02/22 15:08:06;;;;;;;58.10;28.15;;;10.20;99.90;;;;;;4857811;29;20134;-92
2023/02/22 15:10:44;;;;;;;68.07;31.42;;;10.10;99.90;;;;;;4861522;29;20049;-92
2023/02/22 15:13:25;;;;;;;58.00;28.48;;;10.20;99.90;;;;;;4857952;29;20057;-91
2023/02/22 15:15:57;;;;;;;61.60;29.08;;;10.20;99.90;;;;;;4854508;29;20516;-92
2023/02/22 15:18:36;;;;;;;59.22;28.40;;;10.20;99.90;;;;;;4849387;29;20410;-92
2023/02/22 15:21:06;;;;;;;55.83;28.65;;;10.20;99.90;;;;;;4865120;29;20056;-92
2023/02/22 15:23:44;;;;;;;63.95;30.88;;;10.20;99.90;;;;;;4864996;29;20135;-92
2023/02/22 15:26:28;;;;;;;56.25;28.30;;;10.20;99.90;;;;;;4865015;29;20048;-92
2023/02/22 15:28:54;;;;;;;;;;;10.20;99.90;;;;;;4853006;29;20061;-91